createdAt,value
2023-03-29T00:00:51.190Z,6.88
2023-03-29T00:03:57.083Z,6.18
2023-03-29T00:07:04.722Z,6.80
2023-03-29T00:10:12.309Z,5.70
2023-03-29T00:13:18.542Z,6.53
2023-03-29T00:16:23.901Z,6.00
2023-03-29T00:19:35.774Z,5.55
2023-03-29T00:22:47.185Z,6.22
2023-03-29T00:25:56.799Z,6.18
2023-03-29T00:29:02.569Z,5.05
2023-03-29T00:32:08.295Z,5.60
2023-03-29T00:35:13.980Z,5.40
2023-03-29T00:38:19.491Z,5.70
2023-03-29T00:41:24.551Z,5.38
2023-03-29T00:45:04.379Z,6.20
2023-03-29T00:48:17.777Z,5.38
2023-03-29T00:51:27.143Z,6.00
2023-03-29T00:54:33.200Z,5.70
2023-03-29T00:57:43.732Z,4.93
2023-03-29T01:00:55.896Z,5.57
2023-03-29T01:04:18.558Z,5.72
2023-03-29T01:07:50.627Z,5.82
2023-03-29T01:11:19.709Z,4.82
2023-03-29T01:14:46.997Z,5.38
2023-03-29T01:17:54.203Z,5.35
2023-03-29T01:21:23.899Z,5.53
2023-03-29T01:24:45.450Z,5.97
2023-03-29T01:28:04.545Z,5.95
2023-03-29T01:31:19.096Z,7.00
2023-03-29T01:35:00.176Z,6.75
2023-03-29T01:38:18.841Z,7.28
2023-03-29T01:41:40.777Z,7.55
2023-03-29T01:45:02.471Z,7.97
2023-03-29T01:48:25.100Z,8.57
2023-03-29T01:51:59.691Z,8.40
2023-03-29T01:55:31.911Z,7.88
2023-03-29T01:58:45.361Z,7.88
2023-03-29T02:01:55.709Z,8.18
2023-03-29T02:05:06.874Z,8.32
2023-03-29T02:08:15.723Z,8.63
2023-03-29T02:11:23.936Z,8.60
2023-03-29T02:14:30.868Z,9.40
2023-03-29T02:17:37.032Z,7.88
2023-03-29T02:20:49.915Z,9.45
2023-03-29T02:23:59.112Z,8.73
2023-03-29T02:27:05.323Z,7.75
2023-03-29T02:30:16.007Z,8.05
2023-03-29T02:33:33.078Z,7.90
2023-03-29T02:36:47.007Z,8.82
2023-03-29T02:39:54.100Z,8.35
2023-03-29T02:43:02.360Z,8.55
2023-03-29T02:46:09.510Z,9.52
2023-03-29T02:49:15.253Z,9.50
2023-03-29T02:52:26.690Z,8.85
2023-03-29T02:55:34.994Z,8.67
2023-03-29T02:58:41.502Z,10.13
2023-03-29T03:01:47.201Z,11.60
2023-03-29T03:04:52.856Z,9.55
2023-03-29T03:07:58.630Z,10.23
2023-03-29T03:11:04.398Z,10.43
2023-03-29T03:14:10.430Z,10.20
2023-03-29T03:17:15.891Z,10.75
2023-03-29T03:20:23.927Z,10.90
2023-03-29T03:23:29.730Z,10.98
2023-03-29T03:26:36.277Z,11.70
2023-03-29T03:29:44.269Z,10.27
2023-03-29T03:32:50.118Z,10.25
2023-03-29T03:36:26.289Z,10.98
2023-03-29T03:39:33.675Z,9.90
2023-03-29T03:42:41.524Z,10.68
2023-03-29T03:45:47.446Z,10.90
2023-03-29T03:48:55.738Z,10.10
2023-03-29T03:52:08.427Z,10.38
2023-03-29T03:55:14.567Z,10.85
2023-03-29T03:58:24.890Z,10.05
2023-03-29T04:01:30.454Z,10.55
2023-03-29T04:04:51.277Z,10.43
2023-03-29T04:07:58.655Z,11.15
2023-03-29T04:11:18.213Z,10.57
2023-03-29T04:14:24.369Z,11.57
2023-03-29T04:17:57.045Z,11.23
2023-03-29T04:21:09.596Z,11.82
2023-03-29T04:24:15.401Z,9.73
2023-03-29T04:27:24.722Z,9.90
2023-03-29T04:30:30.220Z,9.93
2023-03-29T04:33:56.337Z,9.50
2023-03-29T04:37:10.356Z,10.40
2023-03-29T04:40:19.579Z,10.48
2023-03-29T04:43:49.396Z,10.45
2023-03-29T04:47:03.344Z,12.57
2023-03-29T04:50:17.565Z,11.80
2023-03-29T04:53:24.163Z,9.95
2023-03-29T04:56:30.050Z,9.75
2023-03-29T04:59:57.827Z,10.15
2023-03-29T05:03:24.258Z,10.00
2023-03-29T05:06:37.161Z,9.25
2023-03-29T05:09:44.618Z,9.98
2023-03-29T05:12:54.419Z,8.70
2023-03-29T05:16:01.929Z,8.77
2023-03-29T05:19:09.598Z,10.18
2023-03-29T05:22:19.215Z,9.68
2023-03-29T05:25:26.302Z,9.98
2023-03-29T05:28:33.972Z,8.55
2023-03-29T05:31:41.765Z,8.55
2023-03-29T05:34:47.374Z,9.18
2023-03-29T05:37:54.126Z,8.70
2023-03-29T05:41:02.090Z,10.98
2023-03-29T05:44:07.695Z,9.65
2023-03-29T05:47:14.784Z,10.35
2023-03-29T05:50:20.259Z,9.52
2023-03-29T05:53:28.798Z,9.25
2023-03-29T05:56:34.537Z,8.50
2023-03-29T05:59:39.948Z,9.43
2023-03-29T06:02:45.921Z,9.43
2023-03-29T06:06:02.651Z,9.27
2023-03-29T06:09:09.810Z,8.77
2023-03-29T06:12:20.711Z,9.52
2023-03-29T06:15:45.251Z,9.07
2023-03-29T06:18:50.988Z,9.80
2023-03-29T06:21:57.234Z,9.10
2023-03-29T06:25:07.829Z,10.27
2023-03-29T06:28:15.109Z,10.70
2023-03-29T06:31:21.455Z,10.60
2023-03-29T06:34:29.956Z,10.38
2023-03-29T06:37:54.907Z,10.55
2023-03-29T06:41:11.455Z,10.75
2023-03-29T06:44:53.743Z,9.17
2023-03-29T06:47:59.464Z,10.82
2023-03-29T06:51:07.805Z,10.02
2023-03-29T06:54:13.485Z,10.23
2023-03-29T06:57:28.740Z,9.82
2023-03-29T07:00:38.245Z,9.55
2023-03-29T07:03:52.929Z,9.07
2023-03-29T07:07:06.242Z,8.43
2023-03-29T07:10:13.880Z,8.40
2023-03-29T07:13:38.758Z,9.70
2023-03-29T07:16:47.442Z,10.57
2023-03-29T07:19:58.037Z,10.23
2023-03-29T07:23:23.820Z,8.27
2023-03-29T07:26:30.856Z,8.63
2023-03-29T07:29:38.056Z,8.73
2023-03-29T07:32:46.723Z,8.25
2023-03-29T07:36:15.986Z,8.82
2023-03-29T07:39:22.910Z,9.77
2023-03-29T07:42:53.073Z,9.88
2023-03-29T07:46:05.497Z,9.43
2023-03-29T07:49:13.155Z,8.63
2023-03-29T07:52:18.689Z,7.57
2023-03-29T07:55:23.975Z,7.85
2023-03-29T07:59:04.407Z,7.50
2023-03-29T08:02:11.502Z,7.15
2023-03-29T08:05:37.857Z,6.85
2023-03-29T08:08:49.525Z,6.45
2023-03-29T08:11:58.095Z,6.60
2023-03-29T08:15:11.362Z,7.35
2023-03-29T08:18:16.999Z,5.95
2023-03-29T08:21:22.693Z,5.82
2023-03-29T08:24:29.280Z,6.30
2023-03-29T08:27:40.631Z,7.18
2023-03-29T08:30:48.592Z,5.90
2023-03-29T08:33:54.471Z,6.00
2023-03-29T08:37:16.607Z,6.60
2023-03-29T08:40:30.461Z,7.03
2023-03-29T08:44:12.009Z,6.13
2023-03-29T08:48:14.395Z,5.88
2023-03-29T08:51:28.134Z,6.85
2023-03-29T08:54:43.717Z,6.80
2023-03-29T08:57:52.252Z,5.93
2023-03-29T09:01:09.652Z,6.20
2023-03-29T09:04:36.943Z,7.22
2023-03-29T09:07:53.561Z,6.30
2023-03-29T09:11:24.574Z,6.18
2023-03-29T09:14:48.321Z,6.35
2023-03-29T09:18:06.427Z,6.43
2023-03-29T09:21:26.551Z,5.57
2023-03-29T09:25:11.028Z,5.57
2023-03-29T09:28:45.075Z,5.60
2023-03-29T09:31:50.587Z,6.25
2023-03-29T09:35:18.815Z,5.97
2023-03-29T09:38:26.060Z,5.95
2023-03-29T09:42:12.393Z,5.57
2023-03-29T09:45:19.125Z,5.88
2023-03-29T09:48:32.501Z,6.05
2023-03-29T09:51:40.337Z,6.20
2023-03-29T09:54:45.825Z,5.53
2023-03-29T09:58:18.336Z,6.00
2023-03-29T10:01:38.034Z,6.28
2023-03-29T10:04:45.300Z,5.43
2023-03-29T10:07:58.084Z,5.35
2023-03-29T10:11:12.829Z,5.45
2023-03-29T10:14:26.644Z,4.63
2023-03-29T10:17:40.592Z,4.40
2023-03-29T10:20:47.945Z,5.60
2023-03-29T10:23:59.669Z,4.90
2023-03-29T10:27:10.754Z,5.22
2023-03-29T10:30:25.669Z,4.87
2023-03-29T10:33:34.344Z,4.13
2023-03-29T10:36:42.515Z,3.63
2023-03-29T10:39:49.296Z,2.83
2023-03-29T10:42:59.922Z,3.28
2023-03-29T10:46:21.521Z,4.10
2023-03-29T10:52:33.569Z,4.15
2023-03-29T10:55:52.272Z,3.75
2023-03-29T10:59:10.340Z,3.30
2023-03-29T11:02:15.844Z,3.13
2023-03-29T11:05:35.154Z,3.20
2023-03-29T11:08:43.381Z,3.50
2023-03-29T11:12:15.544Z,4.22
2023-03-29T11:15:30.865Z,3.40
2023-03-29T11:18:54.804Z,3.08
2023-03-29T11:22:03.412Z,4.65
2023-03-29T11:25:20.610Z,3.08
2023-03-29T11:28:39.169Z,3.30
2023-03-29T11:32:14.698Z,3.42
2023-03-29T11:35:34.940Z,4.68
2023-03-29T11:38:59.053Z,2.92
2023-03-29T11:42:17.436Z,3.78
2023-03-29T11:45:34.950Z,2.92
2023-03-29T11:48:53.153Z,3.15
2023-03-29T11:52:07.238Z,3.40
2023-03-29T11:55:18.358Z,3.15
2023-03-29T11:58:32.224Z,3.05
2023-03-29T12:01:53.311Z,3.03
2023-03-29T12:05:02.554Z,3.03
2023-03-29T12:08:17.145Z,4.10
2023-03-29T12:11:23.159Z,3.55
2023-03-29T12:14:39.131Z,3.58
2023-03-29T12:18:03.467Z,3.63
2023-03-29T12:21:23.117Z,4.40
2023-03-29T12:24:32.889Z,4.55
2023-03-29T12:28:05.824Z,4.20
2023-03-29T12:31:39.639Z,3.80
2023-03-29T12:35:03.372Z,3.45
2023-03-29T12:38:31.157Z,2.90
2023-03-29T12:42:13.509Z,4.32
2023-03-29T12:45:48.935Z,3.35
2023-03-29T12:49:06.274Z,4.25
2023-03-29T12:52:35.579Z,3.78
2023-03-29T12:55:44.020Z,4.43
2023-03-29T12:59:05.689Z,5.18
2023-03-29T13:05:34.912Z,3.90
2023-03-29T13:08:40.053Z,3.70
2023-03-29T13:11:52.810Z,3.05
2023-03-29T13:15:06.054Z,4.07
2023-03-29T13:18:49.566Z,3.63
2023-03-29T13:22:13.363Z,3.83
2023-03-29T13:25:43.083Z,3.15
2023-03-29T13:29:22.787Z,3.25
2023-03-29T13:32:43.985Z,2.67
2023-03-29T13:36:16.719Z,3.15
2023-03-29T13:39:28.234Z,3.15
2023-03-29T13:45:39.711Z,2.80
2023-03-29T13:48:54.299Z,3.85
2023-03-29T13:52:23.814Z,2.67
2023-03-29T13:55:38.503Z,2.53
2023-03-29T13:58:49.341Z,3.65
2023-03-29T14:02:01.006Z,3.05
2023-03-29T14:05:12.548Z,3.10
2023-03-29T14:08:26.803Z,2.33
2023-03-29T14:11:32.590Z,3.60
2023-03-29T14:14:48.363Z,3.25
2023-03-29T14:18:03.439Z,2.45
2023-03-29T14:21:11.699Z,3.17
2023-03-29T14:24:21.885Z,2.50
2023-03-29T14:27:32.186Z,2.60
2023-03-29T14:30:37.503Z,2.60
2023-03-29T14:33:42.721Z,2.60
2023-03-29T14:36:49.440Z,4.28
2023-03-29T14:39:55.640Z,2.70
2023-03-29T14:43:06.907Z,3.03
2023-03-29T14:46:14.511Z,2.55
2023-03-29T14:49:23.246Z,2.60
2023-03-29T14:52:30.709Z,3.30
2023-03-29T14:55:36.836Z,3.75
2023-03-29T14:58:49.048Z,2.92
2023-03-29T15:01:54.854Z,3.10
2023-03-29T15:05:06.115Z,3.00
2023-03-29T15:08:18.887Z,3.15
2023-03-29T15:11:28.178Z,2.83
2023-03-29T15:14:37.322Z,2.53
2023-03-29T15:17:51.881Z,2.95
2023-03-29T15:20:59.714Z,2.90
2023-03-29T15:24:05.840Z,3.65
2023-03-29T15:27:17.226Z,4.38
2023-03-29T15:30:34.909Z,3.35
2023-03-29T15:33:42.918Z,3.35
2023-03-29T15:36:50.735Z,3.15
2023-03-29T15:39:56.904Z,4.00
2023-03-29T15:43:02.661Z,3.40
2023-03-29T15:46:08.227Z,3.55
2023-03-29T15:49:14.851Z,3.38
2023-03-29T15:52:20.436Z,3.42
2023-03-29T15:55:30.003Z,3.67
2023-03-29T15:58:36.204Z,4.40
2023-03-29T16:01:42.017Z,4.78
2023-03-29T16:04:47.668Z,3.40
2023-03-29T16:07:53.190Z,3.97
2023-03-29T16:10:58.609Z,6.28
2023-03-29T16:14:15.210Z,4.57
2023-03-29T16:17:20.912Z,4.28
2023-03-29T16:20:26.767Z,4.93
2023-03-29T16:23:32.856Z,4.88
2023-03-29T16:26:39.458Z,4.57
2023-03-29T16:29:44.957Z,4.13
2023-03-29T16:32:51.016Z,5.20
2023-03-29T16:35:56.679Z,4.78
2023-03-29T16:39:02.140Z,4.72
2023-03-29T16:42:11.518Z,4.60
2023-03-29T16:45:18.916Z,6.85
2023-03-29T16:48:24.701Z,5.00
2023-03-29T16:51:30.583Z,5.47
2023-03-29T16:54:36.393Z,5.38
2023-03-29T16:57:43.041Z,4.57
2023-03-29T17:00:48.706Z,4.82
2023-03-29T17:03:54.427Z,4.45
2023-03-29T17:06:59.725Z,4.43
2023-03-29T17:10:09.450Z,5.22
2023-03-29T17:13:14.612Z,4.63
2023-03-29T17:16:20.319Z,4.80
2023-03-29T17:19:26.116Z,4.22
2023-03-29T17:22:31.315Z,4.25
2023-03-29T17:25:37.254Z,4.72
2023-03-29T17:28:43.790Z,4.50
2023-03-29T17:31:50.075Z,5.13
2023-03-29T17:34:55.515Z,4.57
2023-03-29T17:38:01.675Z,4.97
2023-03-29T17:41:08.728Z,5.53
2023-03-29T17:44:14.556Z,6.25
2023-03-29T17:47:20.304Z,6.25
2023-03-29T17:50:26.596Z,5.40
2023-03-29T17:53:31.958Z,5.25
2023-03-29T17:56:37.899Z,5.10
2023-03-29T17:59:44.505Z,4.22
2023-03-29T18:02:49.978Z,5.38
2023-03-29T18:05:55.473Z,5.43
2023-03-29T18:09:01.759Z,5.93
2023-03-29T18:12:08.758Z,6.30
2023-03-29T18:15:14.347Z,6.05
2023-03-29T18:18:19.922Z,5.45
2023-03-29T18:21:27.318Z,5.68
2023-03-29T18:24:33.138Z,6.13
2023-03-29T18:27:39.805Z,5.13
2023-03-29T18:30:45.682Z,6.43
2023-03-29T18:33:51.068Z,7.22
2023-03-29T18:36:57.949Z,6.65
2023-03-29T18:40:08.318Z,5.82
2023-03-29T18:43:14.068Z,5.68
2023-03-29T18:46:19.459Z,6.15
2023-03-29T18:49:26.078Z,5.30
2023-03-29T18:52:31.636Z,7.97
2023-03-29T18:55:37.194Z,7.32
2023-03-29T18:58:43.242Z,7.05
2023-03-29T19:01:48.970Z,6.20
2023-03-29T19:04:54.549Z,7.05
2023-03-29T19:08:01.570Z,7.13
2023-03-29T19:11:10.000Z,7.45
2023-03-29T19:14:17.587Z,6.88
2023-03-29T19:17:24.302Z,8.18
2023-03-29T19:20:30.196Z,7.57
2023-03-29T19:23:36.471Z,8.50
2023-03-29T19:26:44.742Z,8.60
2023-03-29T19:29:50.226Z,8.60
2023-03-29T19:32:56.428Z,9.60
2023-03-29T19:36:02.380Z,8.93
2023-03-29T19:39:07.788Z,8.27
2023-03-29T19:42:13.418Z,8.65
2023-03-29T19:45:19.447Z,8.85
2023-03-29T19:48:25.126Z,9.05
2023-03-29T19:51:31.010Z,9.73
2023-03-29T19:54:36.835Z,8.68
2023-03-29T19:57:43.665Z,9.20
2023-03-29T20:00:55.070Z,8.90
2023-03-29T20:04:03.034Z,8.70
2023-03-29T20:07:09.935Z,9.65
2023-03-29T20:10:23.002Z,9.35
2023-03-29T20:16:48.357Z,7.53
2023-03-29T20:19:56.739Z,9.35
2023-03-29T20:23:05.588Z,8.23
2023-03-29T20:26:12.511Z,8.88
2023-03-29T20:29:19.502Z,6.88
2023-03-29T20:32:25.039Z,7.68
2023-03-29T20:35:30.663Z,6.82
2023-03-29T20:38:37.390Z,6.25
2023-03-29T20:41:47.922Z,6.30
2023-03-29T20:44:54.143Z,6.47
2023-03-29T20:48:02.726Z,6.85
2023-03-29T20:51:10.373Z,6.80
2023-03-29T20:54:16.042Z,6.03
2023-03-29T20:57:22.138Z,6.53
2023-03-29T21:00:29.820Z,6.82
2023-03-29T21:03:37.720Z,6.00
2023-03-29T21:06:45.905Z,6.20
2023-03-29T21:09:51.428Z,6.72
2023-03-29T21:13:00.775Z,6.07
2023-03-29T21:16:06.416Z,6.55
2023-03-29T21:19:12.272Z,6.72
2023-03-29T21:22:18.420Z,5.85
2023-03-29T21:25:23.877Z,6.53
2023-03-29T21:28:30.257Z,6.40
2023-03-29T21:31:35.933Z,6.50
2023-03-29T21:34:41.693Z,6.32
2023-03-29T21:37:47.219Z,6.45
2023-03-29T21:40:52.947Z,6.93
2023-03-29T21:44:04.408Z,5.63
2023-03-29T21:47:09.941Z,6.53
2023-03-29T21:50:16.774Z,6.93
2023-03-29T21:53:22.316Z,5.47
2023-03-29T21:56:29.258Z,5.78
2023-03-29T21:59:34.674Z,6.20
2023-03-29T22:02:41.090Z,5.50
2023-03-29T22:06:00.443Z,6.03
2023-03-29T22:09:06.324Z,5.43
2023-03-29T22:12:12.340Z,6.20
2023-03-29T22:15:21.048Z,6.15
2023-03-29T22:18:44.137Z,6.03
2023-03-29T22:21:49.451Z,5.95
2023-03-29T22:24:56.271Z,6.10
2023-03-29T22:28:01.828Z,7.38
2023-03-29T22:31:14.020Z,6.45
2023-03-29T22:34:19.670Z,6.35
2023-03-29T22:37:25.625Z,5.68
2023-03-29T22:40:33.704Z,6.78
2023-03-29T22:43:39.590Z,6.88
2023-03-29T22:46:45.223Z,7.75
2023-03-29T22:49:51.520Z,8.13
2023-03-29T22:52:57.724Z,7.18
2023-03-29T22:56:04.629Z,7.03
2023-03-29T22:59:10.367Z,7.07
2023-03-29T23:02:17.326Z,6.32
2023-03-29T23:05:23.693Z,7.63
2023-03-29T23:08:31.149Z,9.25
2023-03-29T23:11:37.200Z,8.43
2023-03-29T23:14:43.097Z,8.32
2023-03-29T23:17:48.996Z,8.32
2023-03-29T23:20:56.852Z,7.55
2023-03-29T23:24:02.591Z,8.70
2023-03-29T23:27:08.226Z,10.02
2023-03-29T23:30:13.819Z,9.25
2023-03-29T23:33:22.200Z,7.43
2023-03-29T23:36:31.549Z,9.05
2023-03-29T23:39:36.823Z,9.20
2023-03-29T23:42:44.430Z,8.73
2023-03-29T23:45:56.474Z,8.32
2023-03-29T23:49:01.987Z,8.95
2023-03-29T23:52:07.998Z,9.18
2023-03-29T23:55:17.368Z,9.07
2023-03-29T23:58:22.614Z,10.38
